sensor_id;sensor_type;location;lat;lon;timestamp;pressure;altitude;pressure_sealevel;temperature;humidity
77454;BME280;66538;53.150;18.160;2023-03-05T00:00:20;100953.64;;;-3.17;59.44
77454;BME280;66538;53.150;18.160;2023-03-05T00:03:07;100951.36;;;-3.19;59.68
77454;BME280;66538;53.150;18.160;2023-03-05T00:05:33;100946.22;;;-3.20;59.44
77454;BME280;66538;53.150;18.160;2023-03-05T00:08:00;100944.70;;;-3.21;59.52
77454;BME280;66538;53.150;18.160;2023-03-05T00:10:27;100947.23;;;-3.20;59.65
77454;BME280;66538;53.150;18.160;2023-03-05T00:12:54;100946.52;;;-3.20;59.41
77454;BME280;66538;53.150;18.160;2023-03-05T00:15:20;100942.09;;;-3.21;59.30
77454;BME280;66538;53.150;18.160;2023-03-05T00:17:47;100938.81;;;-3.20;59.94
77454;BME280;66538;53.150;18.160;2023-03-05T00:20:14;100938.86;;;-3.21;59.89
77454;BME280;66538;53.150;18.160;2023-03-05T00:22:40;100933.55;;;-3.22;60.04
77454;BME280;66538;53.150;18.160;2023-03-05T00:25:07;100930.54;;;-3.22;59.67
77454;BME280;66538;53.150;18.160;2023-03-05T00:27:34;100927.15;;;-3.22;60.10
77454;BME280;66538;53.150;18.160;2023-03-05T00:30:01;100924.80;;;-3.23;60.05
77454;BME280;66538;53.150;18.160;2023-03-05T00:32:27;100924.81;;;-3.23;60.14
77454;BME280;66538;53.150;18.160;2023-03-05T00:34:54;100920.49;;;-3.24;60.21
77454;BME280;66538;53.150;18.160;2023-03-05T00:37:20;100922.19;;;-3.25;60.27
77454;BME280;66538;53.150;18.160;2023-03-05T00:39:47;100915.98;;;-3.25;60.23
77454;BME280;66538;53.150;18.160;2023-03-05T00:42:14;100913.58;;;-3.26;60.52
77454;BME280;66538;53.150;18.160;2023-03-05T00:44:40;100912.96;;;-3.26;60.61
77454;BME280;66538;53.150;18.160;2023-03-05T00:47:07;100911.64;;;-3.26;60.61
77454;BME280;66538;53.150;18.160;2023-03-05T00:49:33;100909.46;;;-3.27;60.40
77454;BME280;66538;53.150;18.160;2023-03-05T00:52:00;100902.90;;;-3.28;61.10
77454;BME280;66538;53.150;18.160;2023-03-05T00:54:27;100896.96;;;-3.29;60.56
77454;BME280;66538;53.150;18.160;2023-03-05T00:56:53;100899.42;;;-3.28;61.01
77454;BME280;66538;53.150;18.160;2023-03-05T00:59:20;100898.30;;;-3.30;60.92
77454;BME280;66538;53.150;18.160;2023-03-05T01:01:46;100898.20;;;-3.30;61.22
77454;BME280;66538;53.150;18.160;2023-03-05T01:04:13;100896.71;;;-3.31;61.52
77454;BME280;66538;53.150;18.160;2023-03-05T01:06:40;100893.89;;;-3.31;61.46
77454;BME280;66538;53.150;18.160;2023-03-05T01:09:10;100889.62;;;-3.32;61.60
77454;BME280;66538;53.150;18.160;2023-03-05T01:11:36;100885.73;;;-3.36;61.34
77454;BME280;66538;53.150;18.160;2023-03-05T01:14:03;100883.36;;;-3.35;61.74
77454;BME280;66538;53.150;18.160;2023-03-05T01:16:29;100868.70;;;-3.56;62.16
77454;BME280;66538;53.150;18.160;2023-03-05T01:18:56;100874.86;;;-3.44;62.19
77454;BME280;66538;53.150;18.160;2023-03-05T01:21:23;100864.98;;;-3.53;62.14
77454;BME280;66538;53.150;18.160;2023-03-05T01:23:50;100864.60;;;-3.49;61.95
77454;BME280;66538;53.150;18.160;2023-03-05T01:26:16;100863.48;;;-3.50;62.38
77454;BME280;66538;53.150;18.160;2023-03-05T01:28:43;100863.54;;;-3.47;62.04
77454;BME280;66538;53.150;18.160;2023-03-05T01:31:10;100873.14;;;-3.34;62.15
77454;BME280;66538;53.150;18.160;2023-03-05T01:33:38;100872.13;;;-3.30;62.26
77454;BME280;66538;53.150;18.160;2023-03-05T01:36:10;100870.64;;;-3.26;62.21
77454;BME280;66538;53.150;18.160;2023-03-05T01:38:41;100865.58;;;-3.24;62.66
77454;BME280;66538;53.150;18.160;2023-03-05T01:41:09;100858.22;;;-3.20;62.50
77454;BME280;66538;53.150;18.160;2023-03-05T01:43:36;100856.02;;;-3.18;62.20
77454;BME280;66538;53.150;18.160;2023-03-05T01:48:41;100854.75;;;-3.13;62.29
77454;BME280;66538;53.150;18.160;2023-03-05T01:51:09;100852.45;;;-3.13;62.92
77454;BME280;66538;53.150;18.160;2023-03-05T01:53:36;100851.01;;;-3.14;62.52
77454;BME280;66538;53.150;18.160;2023-03-05T01:56:03;100847.86;;;-3.16;62.82
77454;BME280;66538;53.150;18.160;2023-03-05T01:58:30;100833.08;;;-3.35;63.31
77454;BME280;66538;53.150;18.160;2023-03-05T02:00:57;100834.91;;;-3.37;63.02
77454;BME280;66538;53.150;18.160;2023-03-05T02:03:24;100832.95;;;-3.37;63.11
77454;BME280;66538;53.150;18.160;2023-03-05T02:05:51;100834.33;;;-3.33;63.50
77454;BME280;66538;53.150;18.160;2023-03-05T02:08:20;100833.29;;;-3.32;63.60
77454;BME280;66538;53.150;18.160;2023-03-05T02:10:52;100833.68;;;-3.23;63.76
77454;BME280;66538;53.150;18.160;2023-03-05T02:13:25;100836.31;;;-3.16;64.00
77454;BME280;66538;53.150;18.160;2023-03-05T02:15:55;100832.70;;;-3.15;64.19
77454;BME280;66538;53.150;18.160;2023-03-05T02:18:23;100831.90;;;-3.14;64.49
77454;BME280;66538;53.150;18.160;2023-03-05T02:23:30;100827.98;;;-3.16;64.52
77454;BME280;66538;53.150;18.160;2023-03-05T02:25:59;100822.32;;;-3.17;64.40
77454;BME280;66538;53.150;18.160;2023-03-05T02:31:16;100818.41;;;-3.17;64.80
77454;BME280;66538;53.150;18.160;2023-03-05T02:33:44;100814.69;;;-3.17;64.92
77454;BME280;66538;53.150;18.160;2023-03-05T02:36:12;100817.00;;;-3.15;65.38
77454;BME280;66538;53.150;18.160;2023-03-05T02:38:40;100814.20;;;-3.16;65.89
77454;BME280;66538;53.150;18.160;2023-03-05T02:41:07;100805.64;;;-3.18;65.73
77454;BME280;66538;53.150;18.160;2023-03-05T02:43:35;100788.65;;;-3.37;65.69
77454;BME280;66538;53.150;18.160;2023-03-05T02:46:03;100786.53;;;-3.32;65.96
77454;BME280;66538;53.150;18.160;2023-03-05T02:48:30;100791.27;;;-3.28;66.10
77454;BME280;66538;53.150;18.160;2023-03-05T02:50:57;100784.27;;;-3.26;66.02
77454;BME280;66538;53.150;18.160;2023-03-05T02:53:24;100785.20;;;-3.26;65.99
77454;BME280;66538;53.150;18.160;2023-03-05T02:55:52;100782.39;;;-3.26;66.16
77454;BME280;66538;53.150;18.160;2023-03-05T02:58:18;100781.17;;;-3.28;66.13
77454;BME280;66538;53.150;18.160;2023-03-05T03:00:45;100779.71;;;-3.25;66.45
77454;BME280;66538;53.150;18.160;2023-03-05T03:03:12;100777.96;;;-3.22;66.46
77454;BME280;66538;53.150;18.160;2023-03-05T03:05:39;100774.83;;;-3.22;66.34
77454;BME280;66538;53.150;18.160;2023-03-05T03:08:06;100769.71;;;-3.22;66.50
77454;BME280;66538;53.150;18.160;2023-03-05T03:10:33;100765.13;;;-3.18;66.78
77454;BME280;66538;53.150;18.160;2023-03-05T03:13:00;100768.34;;;-3.02;66.16
77454;BME280;66538;53.150;18.160;2023-03-05T03:15:26;100757.55;;;-2.96;66.55
77454;BME280;66538;53.150;18.160;2023-03-05T03:17:54;100748.85;;;-2.91;66.38
77454;BME280;66538;53.150;18.160;2023-03-05T03:20:20;100735.06;;;-2.87;66.35
77454;BME280;66538;53.150;18.160;2023-03-05T03:22:47;100737.27;;;-2.81;66.81
77454;BME280;66538;53.150;18.160;2023-03-05T03:25:16;100744.15;;;-2.75;66.51
77454;BME280;66538;53.150;18.160;2023-03-05T03:27:43;100740.55;;;-2.70;66.28
77454;BME280;66538;53.150;18.160;2023-03-05T03:30:11;100735.01;;;-2.65;66.46
77454;BME280;66538;53.150;18.160;2023-03-05T03:32:38;100732.81;;;-2.60;66.45
77454;BME280;66538;53.150;18.160;2023-03-05T03:35:05;100742.05;;;-2.56;66.43
77454;BME280;66538;53.150;18.160;2023-03-05T03:37:32;100746.34;;;-2.56;66.46
77454;BME280;66538;53.150;18.160;2023-03-05T03:39:59;100731.77;;;-2.62;66.46
77454;BME280;66538;53.150;18.160;2023-03-05T03:42:25;100732.31;;;-2.55;66.70
77454;BME280;66538;53.150;18.160;2023-03-05T03:44:52;100732.19;;;-2.51;66.75
77454;BME280;66538;53.150;18.160;2023-03-05T03:47:18;100729.83;;;-2.47;66.81
77454;BME280;66538;53.150;18.160;2023-03-05T03:49:45;100727.95;;;-2.41;66.45
77454;BME280;66538;53.150;18.160;2023-03-05T03:52:12;100724.52;;;-2.40;66.52
77454;BME280;66538;53.150;18.160;2023-03-05T03:54:39;100721.02;;;-2.36;66.81
77454;BME280;66538;53.150;18.160;2023-03-05T03:57:06;100715.73;;;-2.31;67.15
77454;BME280;66538;53.150;18.160;2023-03-05T03:59:33;100707.61;;;-2.25;66.74
77454;BME280;66538;53.150;18.160;2023-03-05T04:01:59;100700.93;;;-2.20;66.70
77454;BME280;66538;53.150;18.160;2023-03-05T04:04:26;100700.44;;;-2.16;66.41
77454;BME280;66538;53.150;18.160;2023-03-05T04:06:54;100695.09;;;-2.13;66.52
77454;BME280;66538;53.150;18.160;2023-03-05T04:09:21;100683.83;;;-2.21;67.10
77454;BME280;66538;53.150;18.160;2023-03-05T04:11:48;100684.02;;;-2.15;66.97
77454;BME280;66538;53.150;18.160;2023-03-05T04:14:14;100686.89;;;-2.07;66.87
77454;BME280;66538;53.150;18.160;2023-03-05T04:16:41;100680.16;;;-2.04;66.79
77454;BME280;66538;53.150;18.160;2023-03-05T04:19:08;100677.61;;;-2.02;66.88
77454;BME280;66538;53.150;18.160;2023-03-05T04:21:34;100664.99;;;-1.99;66.57
77454;BME280;66538;53.150;18.160;2023-03-05T04:24:01;100670.10;;;-1.89;66.34
77454;BME280;66538;53.150;18.160;2023-03-05T04:26:28;100668.98;;;-1.86;66.42
77454;BME280;66538;53.150;18.160;2023-03-05T04:28:54;100672.04;;;-1.83;66.10
77454;BME280;66538;53.150;18.160;2023-03-05T04:31:21;100661.40;;;-1.95;66.36
77454;BME280;66538;53.150;18.160;2023-03-05T04:33:49;100666.98;;;-1.88;66.58
77454;BME280;66538;53.150;18.160;2023-03-05T04:36:15;100673.79;;;-1.84;66.79
77454;BME280;66538;53.150;18.160;2023-03-05T04:38:42;100667.98;;;-1.86;66.43
77454;BME280;66538;53.150;18.160;2023-03-05T04:41:08;100663.05;;;-1.84;66.60
77454;BME280;66538;53.150;18.160;2023-03-05T04:43:35;100669.59;;;-1.70;66.38
77454;BME280;66538;53.150;18.160;2023-03-05T04:46:02;100672.58;;;-1.65;66.55
77454;BME280;66538;53.150;18.160;2023-03-05T04:48:28;100667.86;;;-1.63;66.38
77454;BME280;66538;53.150;18.160;2023-03-05T04:50:55;100667.21;;;-1.61;66.79
77454;BME280;66538;53.150;18.160;2023-03-05T04:53:23;100662.73;;;-1.59;66.42
77454;BME280;66538;53.150;18.160;2023-03-05T04:55:54;100661.47;;;-1.62;66.32
77454;BME280;66538;53.150;18.160;2023-03-05T04:58:21;100644.96;;;-1.77;66.70
77454;BME280;66538;53.150;18.160;2023-03-05T05:00:48;100649.52;;;-1.68;67.01
77454;BME280;66538;53.150;18.160;2023-03-05T05:03:15;100647.52;;;-1.61;66.67
77454;BME280;66538;53.150;18.160;2023-03-05T05:05:41;100630.97;;;-1.62;66.26
77454;BME280;66538;53.150;18.160;2023-03-05T05:08:09;100641.02;;;-1.49;66.36
77454;BME280;66538;53.150;18.160;2023-03-05T05:10:36;100646.61;;;-1.45;66.75
77454;BME280;66538;53.150;18.160;2023-03-05T05:13:05;100643.55;;;-1.45;66.61
77454;BME280;66538;53.150;18.160;2023-03-05T05:15:32;100647.14;;;-1.42;66.62
77454;BME280;66538;53.150;18.160;2023-03-05T05:17:59;100642.54;;;-1.43;66.77
77454;BME280;66538;53.150;18.160;2023-03-05T05:20:26;100644.23;;;-1.41;66.88
77454;BME280;66538;53.150;18.160;2023-03-05T05:22:52;100641.60;;;-1.39;66.74
77454;BME280;66538;53.150;18.160;2023-03-05T05:25:19;100640.63;;;-1.41;67.02
77454;BME280;66538;53.150;18.160;2023-03-05T05:27:45;100635.23;;;-1.52;66.68
77454;BME280;66538;53.150;18.160;2023-03-05T05:30:12;100638.77;;;-1.45;66.94
77454;BME280;66538;53.150;18.160;2023-03-05T05:32:39;100647.90;;;-1.39;66.89
77454;BME280;66538;53.150;18.160;2023-03-05T05:35:06;100637.55;;;-1.38;67.44
77454;BME280;66538;53.150;18.160;2023-03-05T05:37:32;100646.13;;;-1.36;67.16
77454;BME280;66538;53.150;18.160;2023-03-05T05:40:00;100641.88;;;-1.33;67.66
77454;BME280;66538;53.150;18.160;2023-03-05T05:42:26;100637.38;;;-1.33;67.46
77454;BME280;66538;53.150;18.160;2023-03-05T05:44:54;100639.48;;;-1.30;67.50
77454;BME280;66538;53.150;18.160;2023-03-05T05:47:21;100639.59;;;-1.28;67.36
77454;BME280;66538;53.150;18.160;2023-03-05T05:49:48;100639.27;;;-1.27;67.62
77454;BME280;66538;53.150;18.160;2023-03-05T05:52:15;100641.49;;;-1.25;67.66
77454;BME280;66538;53.150;18.160;2023-03-05T05:54:41;100644.05;;;-1.23;67.25
77454;BME280;66538;53.150;18.160;2023-03-05T05:57:08;100645.25;;;-1.21;67.89
77454;BME280;66538;53.150;18.160;2023-03-05T05:59:35;100642.02;;;-1.19;67.92
77454;BME280;66538;53.150;18.160;2023-03-05T06:02:03;100641.41;;;-1.19;67.96
77454;BME280;66538;53.150;18.160;2023-03-05T06:04:30;100641.05;;;-1.16;68.19
77454;BME280;66538;53.150;18.160;2023-03-05T06:06:57;100639.64;;;-1.15;67.52
77454;BME280;66538;53.150;18.160;2023-03-05T06:09:25;100635.67;;;-1.13;68.01
77454;BME280;66538;53.150;18.160;2023-03-05T06:11:52;100639.87;;;-1.11;67.98
77454;BME280;66538;53.150;18.160;2023-03-05T06:14:18;100636.45;;;-1.08;68.04
77454;BME280;66538;53.150;18.160;2023-03-05T06:16:45;100633.95;;;-1.06;68.26
77454;BME280;66538;53.150;18.160;2023-03-05T06:19:13;100632.44;;;-1.05;67.97
77454;BME280;66538;53.150;18.160;2023-03-05T06:21:40;100635.27;;;-1.00;68.20
77454;BME280;66538;53.150;18.160;2023-03-05T06:24:09;100632.30;;;-0.95;68.29
77454;BME280;66538;53.150;18.160;2023-03-05T06:26:36;100628.91;;;-0.92;68.12
77454;BME280;66538;53.150;18.160;2023-03-05T06:29:03;100629.83;;;-0.91;68.07
77454;BME280;66538;53.150;18.160;2023-03-05T06:31:30;100628.07;;;-0.90;68.60
77454;BME280;66538;53.150;18.160;2023-03-05T06:33:58;100626.77;;;-0.84;68.31
77454;BME280;66538;53.150;18.160;2023-03-05T06:36:29;100627.10;;;-0.80;68.91
77454;BME280;66538;53.150;18.160;2023-03-05T06:38:56;100626.66;;;-0.75;68.63
77454;BME280;66538;53.150;18.160;2023-03-05T06:41:25;100630.59;;;-0.70;68.96
77454;BME280;66538;53.150;18.160;2023-03-05T06:43:53;100629.04;;;-0.66;69.21
77454;BME280;66538;53.150;18.160;2023-03-05T06:46:31;100624.09;;;-0.72;69.65
77454;BME280;66538;53.150;18.160;2023-03-05T06:49:00;100622.50;;;-0.71;70.00
77454;BME280;66538;53.150;18.160;2023-03-05T06:51:29;100627.89;;;-0.58;69.99
77454;BME280;66538;53.150;18.160;2023-03-05T06:54:02;100640.02;;;-0.39;70.31
77454;BME280;66538;53.150;18.160;2023-03-05T06:56:30;100636.39;;;-0.36;70.52
77454;BME280;66538;53.150;18.160;2023-03-05T06:58:57;100639.88;;;-0.34;71.05
77454;BME280;66538;53.150;18.160;2023-03-05T07:01:23;100639.84;;;-0.33;71.40
77454;BME280;66538;53.150;18.160;2023-03-05T07:03:52;100635.42;;;-0.31;71.35
77454;BME280;66538;53.150;18.160;2023-03-05T07:06:20;100640.67;;;-0.31;71.93
77454;BME280;66538;53.150;18.160;2023-03-05T07:08:47;100626.54;;;-0.47;72.80
77454;BME280;66538;53.150;18.160;2023-03-05T07:11:19;100625.48;;;-0.42;72.66
77454;BME280;66538;53.150;18.160;2023-03-05T07:13:46;100632.41;;;-0.34;73.35
77454;BME280;66538;53.150;18.160;2023-03-05T07:16:16;100632.09;;;-0.33;73.36
77454;BME280;66538;53.150;18.160;2023-03-05T07:18:44;100630.78;;;-0.31;73.83
77454;BME280;66538;53.150;18.160;2023-03-05T07:21:16;100628.28;;;-0.30;73.47
77454;BME280;66538;53.150;18.160;2023-03-05T07:23:43;100628.15;;;-0.22;73.41
77454;BME280;66538;53.150;18.160;2023-03-05T07:26:10;100631.65;;;-0.18;73.79
77454;BME280;66538;53.150;18.160;2023-03-05T07:28:37;100631.27;;;-0.15;73.73
77454;BME280;66538;53.150;18.160;2023-03-05T07:31:07;100630.55;;;-0.11;73.77
77454;BME280;66538;53.150;18.160;2023-03-05T07:33:34;100631.02;;;-0.04;73.90
77454;BME280;66538;53.150;18.160;2023-03-05T07:36:05;100629.87;;;-0.03;73.66
77454;BME280;66538;53.150;18.160;2023-03-05T07:38:33;100626.22;;;0.03;73.59
77454;BME280;66538;53.150;18.160;2023-03-05T07:41:04;100632.72;;;0.16;73.54
77454;BME280;66538;53.150;18.160;2023-03-05T07:43:31;100635.66;;;0.27;73.27
77454;BME280;66538;53.150;18.160;2023-03-05T07:45:58;100634.64;;;0.33;73.77
77454;BME280;66538;53.150;18.160;2023-03-05T07:48:25;100629.55;;;0.35;73.35
77454;BME280;66538;53.150;18.160;2023-03-05T07:50:59;100628.85;;;0.40;73.19
77454;BME280;66538;53.150;18.160;2023-03-05T07:53:26;100627.73;;;0.47;73.28
77454;BME280;66538;53.150;18.160;2023-03-05T07:55:53;100628.65;;;0.54;73.29
77454;BME280;66538;53.150;18.160;2023-03-05T07:58:19;100624.41;;;0.60;73.19
77454;BME280;66538;53.150;18.160;2023-03-05T08:00:46;100622.02;;;0.64;73.08
77454;BME280;66538;53.150;18.160;2023-03-05T08:03:12;100621.45;;;0.67;73.22
77454;BME280;66538;53.150;18.160;2023-03-05T08:05:40;100619.73;;;0.69;73.09
77454;BME280;66538;53.150;18.160;2023-03-05T08:08:07;100619.02;;;0.74;73.06
77454;BME280;66538;53.150;18.160;2023-03-05T08:10:35;100620.33;;;0.76;72.94
77454;BME280;66538;53.150;18.160;2023-03-05T08:13:02;100613.70;;;0.82;73.01
77454;BME280;66538;53.150;18.160;2023-03-05T08:15:29;100611.98;;;0.94;72.62
77454;BME280;66538;53.150;18.160;2023-03-05T08:17:57;100608.27;;;1.06;72.40
77454;BME280;66538;53.150;18.160;2023-03-05T08:20:25;100609.18;;;1.16;72.70
77454;BME280;66538;53.150;18.160;2023-03-05T08:22:51;100599.52;;;1.15;72.59
77454;BME280;66538;53.150;18.160;2023-03-05T08:25:18;100602.33;;;1.24;72.15
77454;BME280;66538;53.150;18.160;2023-03-05T08:27:46;100601.48;;;1.40;72.21
77454;BME280;66538;53.150;18.160;2023-03-05T08:30:18;100597.63;;;1.46;71.83
77454;BME280;66538;53.150;18.160;2023-03-05T08:32:44;100595.90;;;1.54;71.64
77454;BME280;66538;53.150;18.160;2023-03-05T08:35:11;100590.79;;;1.59;71.67
77454;BME280;66538;53.150;18.160;2023-03-05T08:37:38;100587.33;;;1.65;71.70
77454;BME280;66538;53.150;18.160;2023-03-05T08:40:05;100585.77;;;1.73;71.51
77454;BME280;66538;53.150;18.160;2023-03-05T08:42:32;100581.33;;;1.71;71.47
77454;BME280;66538;53.150;18.160;2023-03-05T08:44:58;100576.16;;;1.74;71.39
77454;BME280;66538;53.150;18.160;2023-03-05T08:47:25;100571.70;;;1.80;71.41
77454;BME280;66538;53.150;18.160;2023-03-05T08:49:52;100572.48;;;1.91;71.08
77454;BME280;66538;53.150;18.160;2023-03-05T08:52:23;100569.91;;;1.92;71.00
77454;BME280;66538;53.150;18.160;2023-03-05T08:54:50;100561.97;;;2.03;70.83
77454;BME280;66538;53.150;18.160;2023-03-05T08:57:17;100569.20;;;2.16;70.40
77454;BME280;66538;53.150;18.160;2023-03-05T08:59:44;100566.56;;;2.22;70.10
77454;BME280;66538;53.150;18.160;2023-03-05T09:02:11;100559.75;;;2.24;69.99
77454;BME280;66538;53.150;18.160;2023-03-05T09:04:38;100551.96;;;2.24;69.79
77454;BME280;66538;53.150;18.160;2023-03-05T09:07:05;100548.69;;;2.30;70.27
77454;BME280;66538;53.150;18.160;2023-03-05T09:09:31;100552.09;;;2.43;70.05
77454;BME280;66538;53.150;18.160;2023-03-05T09:11:59;100547.56;;;2.56;69.06
77454;BME280;66538;53.150;18.160;2023-03-05T09:14:26;100544.69;;;2.59;68.78
77454;BME280;66538;53.150;18.160;2023-03-05T09:16:55;100537.31;;;2.65;68.37
77454;BME280;66538;53.150;18.160;2023-03-05T09:19:22;100547.08;;;2.74;68.17
77454;BME280;66538;53.150;18.160;2023-03-05T09:21:49;100547.15;;;2.80;67.48
77454;BME280;66538;53.150;18.160;2023-03-05T09:24:16;100540.70;;;2.85;67.57
77454;BME280;66538;53.150;18.160;2023-03-05T09:26:43;100543.94;;;2.94;67.05
77454;BME280;66538;53.150;18.160;2023-03-05T09:29:10;100540.19;;;3.05;66.34
77454;BME280;66538;53.150;18.160;2023-03-05T09:31:37;100543.31;;;3.17;66.38
77454;BME280;66538;53.150;18.160;2023-03-05T09:34:04;100538.23;;;3.19;65.80
77454;BME280;66538;53.150;18.160;2023-03-05T09:36:32;100545.07;;;3.33;65.71
77454;BME280;66538;53.150;18.160;2023-03-05T09:38:59;100545.27;;;3.37;65.80
77454;BME280;66538;53.150;18.160;2023-03-05T09:46:43;100534.80;;;3.52;65.42
77454;BME280;66538;53.150;18.160;2023-03-05T09:49:50;100536.17;;;3.63;65.53
77454;BME280;66538;53.150;18.160;2023-03-05T09:52:24;100546.29;;;3.86;64.49
77454;BME280;66538;53.150;18.160;2023-03-05T09:54:57;100538.86;;;3.85;64.27
77454;BME280;66538;53.150;18.160;2023-03-05T09:57:44;100538.75;;;3.81;64.24
77454;BME280;66538;53.150;18.160;2023-03-05T10:00:35;100536.80;;;3.79;64.74
77454;BME280;66538;53.150;18.160;2023-03-05T10:03:09;100528.31;;;3.69;64.25
77454;BME280;66538;53.150;18.160;2023-03-05T10:05:47;100526.00;;;3.52;64.58
77454;BME280;66538;53.150;18.160;2023-03-05T10:08:20;100524.98;;;3.36;64.77
77454;BME280;66538;53.150;18.160;2023-03-05T10:10:51;100526.93;;;3.26;64.90
77454;BME280;66538;53.150;18.160;2023-03-05T10:13:44;100526.58;;;3.18;65.42
77454;BME280;66538;53.150;18.160;2023-03-05T10:22:23;100517.40;;;3.09;66.15
77454;BME280;66538;53.150;18.160;2023-03-05T10:30:40;100516.02;;;3.11;66.26
77454;BME280;66538;53.150;18.160;2023-03-05T10:33:21;100519.25;;;3.14;66.37
77454;BME280;66538;53.150;18.160;2023-03-05T10:41:25;100512.45;;;2.91;65.78
77454;BME280;66538;53.150;18.160;2023-03-05T10:44:03;100507.56;;;2.83;64.73
77454;BME280;66538;53.150;18.160;2023-03-05T10:46:35;100512.77;;;2.75;65.17
77454;BME280;66538;53.150;18.160;2023-03-05T10:49:20;100513.05;;;2.74;65.20
77454;BME280;66538;53.150;18.160;2023-03-05T10:52:05;100510.08;;;2.75;65.71
77454;BME280;66538;53.150;18.160;2023-03-05T10:54:35;100514.05;;;2.83;66.02
77454;BME280;66538;53.150;18.160;2023-03-05T10:57:28;100509.83;;;2.83;65.60
77454;BME280;66538;53.150;18.160;2023-03-05T11:02:32;100510.73;;;2.83;65.67
77454;BME280;66538;53.150;18.160;2023-03-05T11:04:59;100507.90;;;2.79;65.51
77454;BME280;66538;53.150;18.160;2023-03-05T11:07:31;100506.15;;;2.80;65.65
77454;BME280;66538;53.150;18.160;2023-03-05T11:12:27;100507.90;;;2.79;65.50
77454;BME280;66538;53.150;18.160;2023-03-05T11:17:43;100506.20;;;2.79;65.42
77454;BME280;66538;53.150;18.160;2023-03-05T11:20:27;100506.85;;;2.77;65.65
77454;BME280;66538;53.150;18.160;2023-03-05T11:28:23;100499.29;;;2.68;65.64
77454;BME280;66538;53.150;18.160;2023-03-05T11:33:35;100481.46;;;2.46;65.98
77454;BME280;66538;53.150;18.160;2023-03-05T11:38:53;100488.38;;;2.74;65.28
77454;BME280;66538;53.150;18.160;2023-03-05T11:41:42;100500.04;;;2.99;64.86
77454;BME280;66538;53.150;18.160;2023-03-05T11:44:14;100496.95;;;3.05;65.06
77454;BME280;66538;53.150;18.160;2023-03-05T11:46:53;100493.37;;;3.07;64.85
77454;BME280;66538;53.150;18.160;2023-03-05T11:49:26;100490.20;;;3.13;64.53
77454;BME280;66538;53.150;18.160;2023-03-05T11:54:58;100489.36;;;3.15;64.16
77454;BME280;66538;53.150;18.160;2023-03-05T11:57:35;100489.25;;;3.17;64.49
77454;BME280;66538;53.150;18.160;2023-03-05T12:00:11;100488.30;;;3.20;63.63
77454;BME280;66538;53.150;18.160;2023-03-05T12:02:40;100476.41;;;3.08;63.38
77454;BME280;66538;53.150;18.160;2023-03-05T12:05:12;100476.55;;;3.11;63.30
77454;BME280;66538;53.150;18.160;2023-03-05T12:07:41;100472.04;;;3.14;63.07
77454;BME280;66538;53.150;18.160;2023-03-05T12:10:16;100475.38;;;3.24;62.69
77454;BME280;66538;53.150;18.160;2023-03-05T12:17:48;100477.19;;;3.51;62.55
77454;BME280;66538;53.150;18.160;2023-03-05T12:23:03;100463.88;;;3.65;62.85
77454;BME280;66538;53.150;18.160;2023-03-05T12:25:44;100456.85;;;3.76;62.48
77454;BME280;66538;53.150;18.160;2023-03-05T12:28:16;100439.98;;;3.59;62.26
77454;BME280;66538;53.150;18.160;2023-03-05T12:31:27;100455.20;;;3.94;61.45
77454;BME280;66538;53.150;18.160;2023-03-05T12:33:54;100448.61;;;4.04;61.54
77454;BME280;66538;53.150;18.160;2023-03-05T12:38:51;100441.73;;;4.26;61.61
77454;BME280;66538;53.150;18.160;2023-03-05T12:46:44;100413.70;;;5.95;57.15
77454;BME280;66538;53.150;18.160;2023-03-05T12:51:45;100434.77;;;7.56;53.78
77454;BME280;66538;53.150;18.160;2023-03-05T12:54:35;100428.85;;;7.90;51.56
77454;BME280;66538;53.150;18.160;2023-03-05T12:59:44;100416.98;;;9.18;50.48
77454;BME280;66538;53.150;18.160;2023-03-05T13:02:20;100413.19;;;9.75;48.54
77454;BME280;66538;53.150;18.160;2023-03-05T13:04:48;100413.30;;;10.27;48.45
77454;BME280;66538;53.150;18.160;2023-03-05T13:07:18;100418.27;;;10.64;44.95
77454;BME280;66538;53.150;18.160;2023-03-05T13:09:56;100410.57;;;11.02;44.09
77454;BME280;66538;53.150;18.160;2023-03-05T13:12:24;100409.80;;;11.34;43.27
77454;BME280;66538;53.150;18.160;2023-03-05T13:15:04;100411.23;;;11.65;41.65
77454;BME280;66538;53.150;18.160;2023-03-05T13:17:34;100405.27;;;11.99;42.39
77454;BME280;66538;53.150;18.160;2023-03-05T13:23:16;100408.86;;;12.74;40.77
77454;BME280;66538;53.150;18.160;2023-03-05T13:25:44;100411.98;;;12.67;39.12
77454;BME280;66538;53.150;18.160;2023-03-05T13:28:20;100412.42;;;12.67;38.94
77454;BME280;66538;53.150;18.160;2023-03-05T13:30:59;100408.70;;;12.89;38.16
77454;BME280;66538;53.150;18.160;2023-03-05T13:33:31;100412.29;;;12.38;40.03
77454;BME280;66538;53.150;18.160;2023-03-05T13:35:58;100416.11;;;10.98;39.47
77454;BME280;66538;53.150;18.160;2023-03-05T13:38:30;100405.14;;;10.36;39.10
77454;BME280;66538;53.150;18.160;2023-03-05T13:41:06;100407.94;;;11.23;39.99
77454;BME280;66538;53.150;18.160;2023-03-05T13:43:33;100399.20;;;12.19;39.41
77454;BME280;66538;53.150;18.160;2023-03-05T13:46:07;100400.63;;;12.99;36.71
77454;BME280;66538;53.150;18.160;2023-03-05T13:48:33;100400.49;;;13.62;35.81
77454;BME280;66538;53.150;18.160;2023-03-05T13:51:00;100397.61;;;14.12;35.46
77454;BME280;66538;53.150;18.160;2023-03-05T13:53:29;100397.80;;;14.58;34.79
77454;BME280;66538;53.150;18.160;2023-03-05T13:56:00;100393.58;;;15.13;33.67
77454;BME280;66538;53.150;18.160;2023-03-05T13:58:45;100395.34;;;15.68;32.99
77454;BME280;66538;53.150;18.160;2023-03-05T14:01:39;100395.34;;;16.29;32.03
77454;BME280;66538;53.150;18.160;2023-03-05T14:04:18;100395.51;;;16.50;32.14
77454;BME280;66538;53.150;18.160;2023-03-05T14:07:00;100393.05;;;16.63;31.66
77454;BME280;66538;53.150;18.160;2023-03-05T14:12:05;100387.00;;;17.17;30.20